createdAt,value
2022-09-21T00:01:23.706Z,102329.72
2022-09-21T00:03:54.539Z,102327.06
2022-09-21T00:06:23.717Z,102331.94
2022-09-21T00:08:51.785Z,102330.34
2022-09-21T00:11:22.011Z,102338.00
2022-09-21T00:13:54.187Z,102336.25
2022-09-21T00:16:22.401Z,102341.38
2022-09-21T00:18:50.333Z,102337.38
2022-09-21T00:21:19.195Z,102338.78
2022-09-21T00:23:47.578Z,102343.09
2022-09-21T00:26:17.970Z,102336.16
2022-09-21T00:28:46.030Z,102341.19
2022-09-21T00:31:17.716Z,102338.66
2022-09-21T00:33:45.909Z,102354.56
2022-09-21T00:36:16.665Z,102352.50
2022-09-21T00:38:44.737Z,102348.91
2022-09-21T00:41:13.382Z,102350.66
2022-09-21T00:43:44.090Z,102346.47
2022-09-21T00:46:17.005Z,102347.31
2022-09-21T00:48:46.955Z,102354.47
2022-09-21T00:51:15.162Z,102344.66
2022-09-21T00:53:43.122Z,102348.25
2022-09-21T00:56:11.931Z,102345.25
2022-09-21T00:58:43.183Z,102350.59
2022-09-21T01:01:11.625Z,102350.41
2022-09-21T01:03:45.892Z,102350.56
2022-09-21T01:06:14.121Z,102346.06
2022-09-21T01:08:42.583Z,102353.06
2022-09-21T01:11:25.298Z,102351.47
2022-09-21T01:14:07.326Z,102348.69
2022-09-21T01:16:40.734Z,102358.22
2022-09-21T01:19:23.181Z,102361.22
2022-09-21T01:21:55.993Z,102363.88
2022-09-21T01:24:50.417Z,102360.00
2022-09-21T01:27:47.995Z,102361.84
2022-09-21T01:30:18.933Z,102357.72
2022-09-21T01:32:50.527Z,102363.75
2022-09-21T01:35:20.693Z,102352.03
2022-09-21T01:37:50.839Z,102359.06
2022-09-21T01:40:21.775Z,102367.78
2022-09-21T01:42:51.364Z,102361.09
2022-09-21T01:45:26.588Z,102351.66
2022-09-21T01:47:55.954Z,102355.97
2022-09-21T01:50:24.332Z,102365.47
2022-09-21T01:52:55.427Z,102361.00
2022-09-21T01:55:27.210Z,102366.78
2022-09-21T01:57:58.170Z,102355.28
2022-09-21T02:00:27.842Z,102361.25
2022-09-21T02:02:59.201Z,102356.59
2022-09-21T02:05:28.430Z,102361.41
2022-09-21T02:07:57.058Z,102357.53
2022-09-21T02:10:28.596Z,102361.34
2022-09-21T02:13:01.349Z,102362.88
2022-09-21T02:15:38.691Z,102363.50
2022-09-21T02:18:09.053Z,102362.78
2022-09-21T02:20:40.674Z,102367.88
2022-09-21T02:23:13.858Z,102365.59
2022-09-21T02:25:48.294Z,102371.50
2022-09-21T02:28:25.182Z,102368.28
2022-09-21T02:30:59.862Z,102372.59
2022-09-21T02:33:32.378Z,102379.81
2022-09-21T02:36:07.661Z,102368.38
2022-09-21T02:38:40.312Z,102378.06
2022-09-21T02:41:14.220Z,102367.09
2022-09-21T02:43:45.275Z,102371.13
2022-09-21T02:46:17.816Z,102378.66
2022-09-21T02:48:48.134Z,102383.00
2022-09-21T02:51:19.090Z,102378.97
2022-09-21T02:53:48.375Z,102384.91
2022-09-21T02:56:16.834Z,102386.94
2022-09-21T02:58:47.676Z,102389.13
2022-09-21T03:01:17.877Z,102388.78
2022-09-21T03:03:45.930Z,102377.19
2022-09-21T03:06:13.871Z,102381.03
2022-09-21T03:08:42.029Z,102382.75
2022-09-21T03:11:10.858Z,102389.50
2022-09-21T03:13:38.866Z,102394.16
2022-09-21T03:16:08.310Z,102390.28
2022-09-21T03:18:37.680Z,102386.56
2022-09-21T03:21:05.574Z,102392.44
2022-09-21T03:23:33.648Z,102393.50
2022-09-21T03:26:01.563Z,102384.94
2022-09-21T03:28:29.598Z,102393.69
2022-09-21T03:30:57.835Z,102401.03
2022-09-21T03:33:26.490Z,102397.59
2022-09-21T03:35:55.818Z,102401.19
2022-09-21T03:38:24.778Z,102395.19
2022-09-21T03:40:53.640Z,102393.91
2022-09-21T03:43:21.532Z,102393.66
2022-09-21T03:45:49.481Z,102397.00
2022-09-21T03:48:17.418Z,102399.78
2022-09-21T03:50:45.416Z,102404.16
2022-09-21T03:53:15.244Z,102402.63
2022-09-21T03:55:43.257Z,102405.41
2022-09-21T03:58:11.252Z,102408.25
2022-09-21T04:00:39.302Z,102400.81
2022-09-21T04:03:07.552Z,102398.16
2022-09-21T04:05:36.009Z,102401.00
2022-09-21T04:08:04.362Z,102411.91
2022-09-21T04:10:33.915Z,102401.47
2022-09-21T04:13:03.524Z,102402.97
2022-09-21T04:15:31.656Z,102394.59
2022-09-21T04:17:59.677Z,102402.16
2022-09-21T04:20:27.697Z,102400.91
2022-09-21T04:22:55.609Z,102392.56
2022-09-21T04:25:23.615Z,102396.59
2022-09-21T04:27:53.077Z,102399.72
2022-09-21T04:30:21.114Z,102398.97
2022-09-21T04:32:49.033Z,102404.38
2022-09-21T04:35:17.093Z,102404.56
2022-09-21T04:37:45.025Z,102395.16
2022-09-21T04:40:13.023Z,102397.03
2022-09-21T04:42:40.962Z,102396.72
2022-09-21T04:45:11.588Z,102398.56
2022-09-21T04:47:39.649Z,102405.19
2022-09-21T04:50:08.781Z,102398.97
2022-09-21T04:52:36.881Z,102403.50
2022-09-21T04:55:05.490Z,102412.66
2022-09-21T04:57:33.786Z,102408.56
2022-09-21T05:00:01.812Z,102411.25
2022-09-21T05:02:31.065Z,102410.78
2022-09-21T05:04:58.981Z,102404.53
2022-09-21T05:07:26.864Z,102410.66
2022-09-21T05:10:05.713Z,102416.03
2022-09-21T05:12:34.382Z,102421.03
2022-09-21T05:15:02.431Z,102424.75
2022-09-21T05:17:31.725Z,102424.78
2022-09-21T05:19:59.626Z,102431.59
2022-09-21T05:22:29.189Z,102421.09
2022-09-21T05:24:57.064Z,102422.78
2022-09-21T05:27:25.038Z,102426.72
2022-09-21T05:29:53.521Z,102444.91
2022-09-21T05:32:26.105Z,102433.59
2022-09-21T05:35:03.106Z,102425.53
2022-09-21T05:37:47.143Z,102433.00
2022-09-21T05:40:16.040Z,102434.56
2022-09-21T05:42:44.660Z,102440.31
2022-09-21T05:45:15.875Z,102439.84
2022-09-21T05:47:54.355Z,102444.44
2022-09-21T05:50:35.429Z,102439.91
2022-09-21T05:53:11.286Z,102436.47
2022-09-21T05:55:47.432Z,102440.06
2022-09-21T05:58:22.834Z,102434.06
2022-09-21T06:00:58.958Z,102435.41
2022-09-21T06:03:31.177Z,102444.50
2022-09-21T06:06:00.707Z,102446.38
2022-09-21T06:08:28.929Z,102446.94
2022-09-21T06:10:57.113Z,102439.38
2022-09-21T06:13:24.985Z,102439.00
2022-09-21T06:15:52.928Z,102444.16
2022-09-21T06:18:20.920Z,102447.78
2022-09-21T06:20:49.034Z,102444.44
2022-09-21T06:23:18.317Z,102463.47
2022-09-21T06:25:46.213Z,102459.81
2022-09-21T06:28:14.955Z,102464.06
2022-09-21T06:30:45.055Z,102461.53
2022-09-21T06:33:12.993Z,102464.75
2022-09-21T06:35:41.451Z,102460.63
2022-09-21T06:38:09.570Z,102459.94
2022-09-21T06:40:38.940Z,102469.03
2022-09-21T06:43:07.325Z,102466.72
2022-09-21T06:45:35.350Z,102465.88
2022-09-21T06:48:03.706Z,102458.28
2022-09-21T06:50:31.593Z,102452.41
2022-09-21T06:53:01.171Z,102453.84
2022-09-21T06:55:29.462Z,102455.44
2022-09-21T06:58:03.023Z,102450.66
2022-09-21T07:00:31.362Z,102455.41
2022-09-21T07:02:59.523Z,102447.88
2022-09-21T07:05:27.949Z,102457.38
2022-09-21T07:07:59.217Z,102455.72
2022-09-21T07:10:27.560Z,102460.63
2022-09-21T07:12:55.577Z,102461.41
2022-09-21T07:15:25.343Z,102461.53
2022-09-21T07:18:05.054Z,102471.00
2022-09-21T07:20:33.815Z,102462.03
2022-09-21T07:23:01.839Z,102455.69
2022-09-21T07:25:29.733Z,102459.78
2022-09-21T07:27:57.686Z,102456.75
2022-09-21T07:30:27.865Z,102457.25
2022-09-21T07:32:55.756Z,102460.56
2022-09-21T07:35:23.637Z,102459.59
2022-09-21T07:37:51.585Z,102468.75
2022-09-21T07:40:24.354Z,102464.47
2022-09-21T07:42:53.173Z,102472.84
2022-09-21T07:45:21.160Z,102468.13
2022-09-21T07:47:50.524Z,102460.00
2022-09-21T07:50:18.498Z,102462.44
2022-09-21T07:52:46.383Z,102464.97
2022-09-21T07:55:14.413Z,102465.16
2022-09-21T07:58:00.237Z,102471.47
2022-09-21T08:00:29.265Z,102473.63
2022-09-21T08:02:58.510Z,102477.69
2022-09-21T08:05:26.426Z,102470.13
2022-09-21T08:07:56.813Z,102470.72
2022-09-21T08:10:25.447Z,102476.50
2022-09-21T08:12:53.438Z,102475.66
2022-09-21T08:15:46.705Z,102487.22
2022-09-21T08:18:10.941Z,102478.19
2022-09-21T08:20:38.970Z,102480.59
2022-09-21T08:23:06.875Z,102490.38
2022-09-21T08:25:34.941Z,102485.63
2022-09-21T08:28:07.363Z,102486.47
2022-09-21T08:30:37.595Z,102486.06
2022-09-21T08:33:07.062Z,102484.72
2022-09-21T08:35:37.060Z,102488.47
2022-09-21T08:38:04.954Z,102487.38
2022-09-21T08:40:34.125Z,102482.84
2022-09-21T08:43:04.774Z,102489.78
2022-09-21T08:45:35.162Z,102493.72
2022-09-21T08:48:06.090Z,102494.16
2022-09-21T08:50:39.112Z,102491.44
2022-09-21T08:53:09.626Z,102495.34
2022-09-21T08:55:37.585Z,102494.25
2022-09-21T08:58:05.505Z,102494.66
2022-09-21T09:00:38.119Z,102493.91
2022-09-21T09:03:24.525Z,102485.16
2022-09-21T09:05:58.226Z,102493.88
2022-09-21T09:08:48.858Z,102494.75
2022-09-21T09:11:26.715Z,102492.53
2022-09-21T09:14:05.980Z,102493.00
2022-09-21T09:16:39.781Z,102503.41
2022-09-21T09:19:17.231Z,102504.41
2022-09-21T09:21:46.692Z,102499.56
2022-09-21T09:24:17.805Z,102498.47
2022-09-21T09:26:47.693Z,102508.16
2022-09-21T09:29:20.636Z,102504.25
2022-09-21T09:31:49.917Z,102504.63
2022-09-21T09:34:20.822Z,102503.28
2022-09-21T09:36:58.827Z,102498.94
2022-09-21T09:39:30.052Z,102509.25
2022-09-21T09:42:08.093Z,102510.06
2022-09-21T09:45:04.814Z,102502.84
2022-09-21T09:47:41.420Z,102511.78
2022-09-21T09:50:13.174Z,102503.09
2022-09-21T09:52:42.593Z,102512.69
2022-09-21T09:55:20.224Z,102503.56
2022-09-21T09:57:49.145Z,102509.63
2022-09-21T10:00:19.813Z,102513.00
2022-09-21T10:02:49.424Z,102516.56
2022-09-21T10:05:23.570Z,102516.66
2022-09-21T10:07:54.609Z,102513.91
2022-09-21T10:10:33.462Z,102511.06
2022-09-21T10:13:08.470Z,102512.59
2022-09-21T10:15:43.138Z,102507.22
2022-09-21T10:18:20.925Z,102508.34
2022-09-21T10:21:00.272Z,102511.66
2022-09-21T10:23:30.263Z,102504.34
2022-09-21T10:26:00.912Z,102508.03
2022-09-21T10:28:29.540Z,102507.03
2022-09-21T10:31:19.050Z,102503.66
2022-09-21T10:33:53.292Z,102505.69
2022-09-21T10:36:35.058Z,102504.06
2022-09-21T10:39:19.612Z,102498.81
2022-09-21T10:41:56.247Z,102500.09
2022-09-21T10:44:28.184Z,102496.72
2022-09-21T10:49:30.446Z,102496.16
2022-09-21T10:51:59.668Z,102490.06
2022-09-21T10:54:31.609Z,102495.69
2022-09-21T10:57:02.418Z,102489.69
2022-09-21T10:59:32.149Z,102488.81
2022-09-21T11:02:01.400Z,102492.50
2022-09-21T11:04:42.522Z,102484.56
2022-09-21T11:07:16.458Z,102484.84
2022-09-21T11:09:50.297Z,102493.66
2022-09-21T11:12:35.737Z,102493.16
2022-09-21T11:15:28.941Z,102482.19
2022-09-21T11:18:08.063Z,102487.88
2022-09-21T11:20:43.039Z,102480.38
2022-09-21T11:23:22.909Z,102485.34
2022-09-21T11:25:59.949Z,102490.09
2022-09-21T11:28:30.941Z,102480.53
2022-09-21T11:31:10.344Z,102482.53
2022-09-21T11:33:55.725Z,102483.13
2022-09-21T11:36:31.093Z,102484.69
2022-09-21T11:39:06.494Z,102484.38
2022-09-21T11:41:52.274Z,102478.09
2022-09-21T11:44:28.966Z,102480.50
2022-09-21T11:47:04.789Z,102477.78
2022-09-21T11:50:29.783Z,102476.19
2022-09-21T11:53:06.937Z,102477.78
2022-09-21T11:55:48.206Z,102474.50
2022-09-21T11:58:24.708Z,102470.50
2022-09-21T12:01:03.242Z,102478.66
2022-09-21T12:03:50.712Z,102471.59
2022-09-21T12:06:27.684Z,102476.31
2022-09-21T12:09:19.011Z,102473.19
2022-09-21T12:11:52.308Z,102471.88
2022-09-21T12:14:28.837Z,102472.91
2022-09-21T12:17:03.371Z,102465.38
2022-09-21T12:19:38.550Z,102469.28
2022-09-21T12:22:10.595Z,102459.72
2022-09-21T12:24:42.013Z,102456.56
2022-09-21T12:27:19.546Z,102462.09
2022-09-21T12:29:53.319Z,102459.16
2022-09-21T12:32:25.534Z,102457.34
2022-09-21T12:34:57.169Z,102450.13
2022-09-21T12:37:31.648Z,102459.44
2022-09-21T12:40:02.744Z,102452.88
2022-09-21T12:42:35.272Z,102447.94
2022-09-21T12:45:07.454Z,102456.06
2022-09-21T12:47:46.611Z,102452.56
2022-09-21T12:50:21.662Z,102445.66
2022-09-21T12:52:51.602Z,102448.13
2022-09-21T12:55:29.482Z,102444.22
2022-09-21T12:58:16.708Z,102443.44
2022-09-21T13:00:53.576Z,102443.75
2022-09-21T13:03:29.105Z,102438.28
2022-09-21T13:06:15.338Z,102432.19
2022-09-21T13:08:44.766Z,102427.50
2022-09-21T13:11:13.252Z,102427.28
2022-09-21T13:13:53.056Z,102422.63
2022-09-21T13:16:27.759Z,102426.75
2022-09-21T13:18:57.856Z,102420.81
2022-09-21T13:21:27.973Z,102427.34
2022-09-21T13:23:57.593Z,102425.84
2022-09-21T13:26:35.879Z,102426.38
2022-09-21T13:29:37.108Z,102426.69
2022-09-21T13:32:23.755Z,102428.94
2022-09-21T13:34:52.092Z,102427.13
2022-09-21T13:37:34.829Z,102433.06
2022-09-21T13:40:40.444Z,102425.97
2022-09-21T13:43:24.655Z,102418.06
2022-09-21T13:45:57.874Z,102411.94
2022-09-21T13:48:29.869Z,102412.94
2022-09-21T13:50:59.862Z,102409.81
2022-09-21T13:53:33.479Z,102412.75
2022-09-21T13:56:03.306Z,102413.88
2022-09-21T13:58:34.004Z,102414.16
2022-09-21T14:01:04.708Z,102402.88
2022-09-21T14:03:37.323Z,102404.16
2022-09-21T14:06:08.819Z,102404.47
2022-09-21T14:08:39.406Z,102397.50
2022-09-21T14:11:09.101Z,102390.38
2022-09-21T14:13:38.768Z,102402.72
2022-09-21T14:16:45.827Z,102403.22
2022-09-21T14:19:51.133Z,102395.00
2022-09-21T14:22:40.454Z,102393.53
2022-09-21T14:25:47.769Z,102405.75
2022-09-21T14:28:18.372Z,102395.75
2022-09-21T14:30:52.762Z,102398.44
2022-09-21T14:33:34.039Z,102389.16
2022-09-21T14:36:06.201Z,102391.19
2022-09-21T14:38:42.287Z,102390.13
2022-09-21T14:41:15.092Z,102384.00
2022-09-21T14:43:52.341Z,102379.69
2022-09-21T14:46:30.291Z,102381.69
2022-09-21T14:49:12.434Z,102380.41
2022-09-21T14:51:45.645Z,102379.41
2022-09-21T14:54:31.480Z,102374.00
2022-09-21T14:57:15.058Z,102381.28
2022-09-21T15:00:05.350Z,102376.09
2022-09-21T15:02:37.227Z,102366.91
2022-09-21T15:05:20.454Z,102368.69
2022-09-21T15:08:10.653Z,102369.06
2022-09-21T15:10:57.968Z,102369.28
2022-09-21T15:13:38.592Z,102367.31
2022-09-21T15:16:17.897Z,102369.38
2022-09-21T15:18:47.807Z,102372.81
2022-09-21T15:21:24.572Z,102362.72
2022-09-21T15:23:53.021Z,102350.78
2022-09-21T15:26:26.637Z,102350.44
2022-09-21T15:29:11.520Z,102354.88
2022-09-21T15:31:41.356Z,102352.31
2022-09-21T15:34:10.832Z,102349.13
2022-09-21T15:36:40.518Z,102345.66
2022-09-21T15:39:19.540Z,102345.25
2022-09-21T15:41:50.781Z,102349.44
2022-09-21T15:44:20.173Z,102343.59
2022-09-21T15:46:50.595Z,102345.88
2022-09-21T15:49:22.043Z,102340.44
2022-09-21T15:51:53.219Z,102354.75
2022-09-21T15:54:30.559Z,102347.63
2022-09-21T15:57:08.621Z,102347.91
2022-09-21T15:59:36.805Z,102351.69
2022-09-21T16:02:13.215Z,102347.25
2022-09-21T16:04:49.341Z,102346.25
2022-09-21T16:07:26.917Z,102349.53
2022-09-21T16:09:55.040Z,102349.25
2022-09-21T16:12:48.298Z,102343.47
2022-09-21T16:15:18.444Z,102345.56
2022-09-21T16:18:05.238Z,102341.09
2022-09-21T16:20:50.761Z,102350.03
2022-09-21T16:23:20.758Z,102342.16
2022-09-21T16:25:55.389Z,102344.50
2022-09-21T16:28:36.714Z,102347.44
2022-09-21T16:31:26.883Z,102349.50
2022-09-21T16:34:21.786Z,102345.53
2022-09-21T16:36:51.640Z,102351.06
2022-09-21T16:39:20.305Z,102345.66
2022-09-21T16:42:00.207Z,102352.88
2022-09-21T16:44:30.898Z,102352.34
2022-09-21T16:47:00.825Z,102353.47
2022-09-21T16:49:31.269Z,102353.75
2022-09-21T16:51:59.719Z,102350.59
2022-09-21T16:54:27.835Z,102351.25
2022-09-21T16:56:57.427Z,102358.19
2022-09-21T16:59:26.446Z,102352.56
2022-09-21T17:01:57.637Z,102358.56
2022-09-21T17:04:27.236Z,102356.66
2022-09-21T17:06:55.630Z,102353.19
2022-09-21T17:09:29.183Z,102358.56
2022-09-21T17:11:59.418Z,102365.34
2022-09-21T17:14:27.352Z,102360.00
2022-09-21T17:16:59.175Z,102351.72
2022-09-21T17:19:27.269Z,102363.50
2022-09-21T17:21:55.165Z,102348.91
2022-09-21T17:24:48.705Z,102353.28
2022-09-21T17:27:11.261Z,102345.50
2022-09-21T17:29:40.263Z,102353.72
2022-09-21T17:32:11.658Z,102356.31
2022-09-21T17:34:40.978Z,102362.16
2022-09-21T17:37:10.389Z,102349.75
2022-09-21T17:39:38.281Z,102350.75
2022-09-21T17:42:15.090Z,102350.72
2022-09-21T17:44:52.475Z,102344.53
2022-09-21T17:47:25.318Z,102351.91
2022-09-21T17:49:53.674Z,102354.31
2022-09-21T17:52:41.034Z,102347.06
2022-09-21T17:55:11.965Z,102357.44
2022-09-21T17:57:48.730Z,102354.22
2022-09-21T18:00:21.192Z,102348.94
2022-09-21T18:02:50.909Z,102351.06
2022-09-21T18:05:25.157Z,102354.13
2022-09-21T18:07:53.616Z,102340.16
2022-09-21T18:10:22.926Z,102353.19
2022-09-21T18:13:21.782Z,102358.25
2022-09-21T18:15:57.947Z,102359.09
2022-09-21T18:18:38.568Z,102365.38
2022-09-21T18:21:10.287Z,102362.75
2022-09-21T18:23:47.266Z,102363.78
2022-09-21T18:26:18.336Z,102362.25
2022-09-21T18:28:47.601Z,102360.13
2022-09-21T18:31:31.031Z,102369.75
2022-09-21T18:34:13.558Z,102366.16
2022-09-21T18:36:48.513Z,102362.03
2022-09-21T18:39:23.908Z,102355.34
2022-09-21T18:42:04.328Z,102361.81
2022-09-21T18:44:38.083Z,102365.13
2022-09-21T18:47:12.028Z,102362.03
2022-09-21T18:49:51.481Z,102357.53
2022-09-21T18:52:29.644Z,102367.00
2022-09-21T18:54:57.914Z,102369.75
2022-09-21T18:57:26.323Z,102365.09
2022-09-21T18:59:54.890Z,102372.56
2022-09-21T19:02:23.404Z,102369.00
2022-09-21T19:04:53.309Z,102370.19
2022-09-21T19:07:28.342Z,102366.28
2022-09-21T19:10:06.395Z,102365.34
2022-09-21T19:12:47.271Z,102366.13
2022-09-21T19:15:27.532Z,102362.78
2022-09-21T19:18:15.014Z,102370.03
2022-09-21T19:21:00.136Z,102366.00
2022-09-21T19:23:38.693Z,102375.06
2022-09-21T19:26:13.297Z,102371.50
2022-09-21T19:28:53.619Z,102376.41
2022-09-21T19:31:21.859Z,102374.66
2022-09-21T19:33:51.412Z,102371.19
2022-09-21T19:36:21.410Z,102371.72
2022-09-21T19:38:49.709Z,102373.44
2022-09-21T19:41:36.061Z,102375.91
2022-09-21T19:44:14.625Z,102375.03
2022-09-21T19:46:49.286Z,102374.13
2022-09-21T19:49:19.060Z,102371.16
2022-09-21T19:51:50.013Z,102376.19
2022-09-21T19:54:36.993Z,102379.44
2022-09-21T19:57:26.426Z,102379.78
2022-09-21T19:59:54.917Z,102373.91
2022-09-21T20:02:28.711Z,102377.38
2022-09-21T20:04:58.280Z,102377.28
2022-09-21T20:07:35.678Z,102382.91
2022-09-21T20:10:32.074Z,102389.91
2022-09-21T20:13:07.309Z,102387.81
2022-09-21T20:15:39.361Z,102392.38
2022-09-21T20:18:12.925Z,102389.41
2022-09-21T20:20:42.161Z,102389.81
2022-09-21T20:23:12.622Z,102390.88
2022-09-21T20:25:48.617Z,102382.31
2022-09-21T20:28:17.577Z,102383.63
2022-09-21T20:30:45.882Z,102394.97
2022-09-21T20:33:15.346Z,102385.78
2022-09-21T20:35:43.950Z,102380.06
2022-09-21T20:38:14.887Z,102382.81
2022-09-21T20:40:43.822Z,102382.41
2022-09-21T20:43:12.194Z,102383.84
2022-09-21T20:45:40.860Z,102382.59
2022-09-21T20:48:15.774Z,102382.00
2022-09-21T20:50:44.567Z,102386.91
2022-09-21T20:53:14.321Z,102386.66
2022-09-21T20:55:43.206Z,102384.47
2022-09-21T20:58:13.134Z,102384.66
2022-09-21T21:00:41.036Z,102386.84
2022-09-21T21:03:08.945Z,102384.31
2022-09-21T21:05:37.258Z,102388.28
2022-09-21T21:08:05.168Z,102392.66
2022-09-21T21:10:34.670Z,102384.84
2022-09-21T21:13:02.699Z,102394.47
2022-09-21T21:15:31.398Z,102387.91
2022-09-21T21:17:59.417Z,102388.78
2022-09-21T21:20:29.045Z,102391.31
2022-09-21T21:22:56.959Z,102385.72
2022-09-21T21:25:24.919Z,102394.13
2022-09-21T21:27:57.455Z,102400.34
2022-09-21T21:30:25.513Z,102398.00
2022-09-21T21:32:53.428Z,102403.81
2022-09-21T21:35:21.356Z,102400.34
2022-09-21T21:37:49.762Z,102399.50
2022-09-21T21:40:17.913Z,102397.63
2022-09-21T21:42:45.830Z,102399.41
2022-09-21T21:45:15.258Z,102402.53
2022-09-21T21:47:43.170Z,102406.69
2022-09-21T21:50:11.296Z,102398.13
2022-09-21T21:52:39.293Z,102397.75
2022-09-21T21:55:08.162Z,102389.03
2022-09-21T21:57:36.060Z,102392.94
2022-09-21T22:00:05.209Z,102392.78
2022-09-21T22:02:34.586Z,102388.75
2022-09-21T22:05:02.506Z,102388.38
2022-09-21T22:07:30.450Z,102390.22
2022-09-21T22:09:58.350Z,102385.75
2022-09-21T22:12:26.318Z,102388.16
2022-09-21T22:14:54.229Z,102383.66
2022-09-21T22:17:22.099Z,102382.00
2022-09-21T22:19:51.519Z,102380.72
2022-09-21T22:22:19.425Z,102383.13
2022-09-21T22:24:48.068Z,102383.25
2022-09-21T22:27:16.510Z,102384.13
2022-09-21T22:29:44.990Z,102387.72
2022-09-21T22:32:12.924Z,102382.19
2022-09-21T22:34:40.858Z,102383.25
2022-09-21T22:37:10.177Z,102382.19
2022-09-21T22:39:38.038Z,102382.69
2022-09-21T22:42:06.174Z,102391.34
2022-09-21T22:44:34.033Z,102381.50
2022-09-21T22:47:01.998Z,102375.91
2022-09-21T22:49:29.894Z,102380.81
2022-09-21T22:51:57.781Z,102380.84
2022-09-21T22:54:27.866Z,102376.41
2022-09-21T22:56:55.786Z,102379.19
2022-09-21T22:59:23.695Z,102375.03
2022-09-21T23:01:51.570Z,102373.88
2022-09-21T23:04:20.765Z,102376.97
2022-09-21T23:06:49.635Z,102374.03
2022-09-21T23:09:19.665Z,102365.13
2022-09-21T23:11:53.278Z,102363.59
2022-09-21T23:14:22.484Z,102371.16
2022-09-21T23:16:50.676Z,102369.03
2022-09-21T23:19:18.553Z,102359.91
2022-09-21T23:21:49.628Z,102357.91
2022-09-21T23:24:17.922Z,102354.69
2022-09-21T23:26:46.765Z,102364.94
2022-09-21T23:29:16.935Z,102358.44
2022-09-21T23:31:46.261Z,102349.31
2022-09-21T23:34:15.527Z,102347.81
2022-09-21T23:36:44.193Z,102346.69
2022-09-21T23:39:13.045Z,102345.53
2022-09-21T23:41:41.230Z,102340.59
2022-09-21T23:44:09.435Z,102335.31
2022-09-21T23:46:39.764Z,102333.44
2022-09-21T23:49:07.809Z,102333.69
2022-09-21T23:51:36.457Z,102335.59
2022-09-21T23:54:05.014Z,102336.25
2022-09-21T23:56:33.248Z,102337.44
2022-09-21T23:59:01.529Z,102325.50
